Time;durP1;ratioP1;P1;durP2;ratioP2;P2;SDS_P1;SDS_P2;PMS_P1;PMS_P2;Temp;Humidity;BMP_temperature;BMP_pressure;BME280_temperature;BME280_humidity;BME280_pressure;Samples;Min_cycle;Max_cycle;Signal;HPM_P1;HPM_P2
2022/06/26 00:01:10;;;;;;;2.95;2.55;;;21.80;72.30;;;;;;5081957;28;20383;-65
2022/06/26 00:03:36;;;;;;;2.72;2.53;;;21.80;72.40;;;;;;5087782;28;20387;-64
2022/06/26 00:06:01;;;;;;;3.10;1.95;;;21.80;72.40;;;;;;5073961;28;20486;-65
2022/06/26 00:08:27;;;;;;;2.35;2.15;;;21.80;72.40;;;;;;5088802;28;20035;-65
2022/06/26 00:10:53;;;;;;;3.78;2.17;;;21.80;72.40;;;;;;5086479;28;20058;-65
2022/06/26 00:13:19;;;;;;;2.83;1.95;;;21.70;72.50;;;;;;5113019;27;20039;-64
2022/06/26 00:15:45;;;;;;;3.75;2.00;;;21.70;72.70;;;;;;5087428;28;20044;-64
2022/06/26 00:18:11;;;;;;;2.75;2.15;;;21.70;72.90;;;;;;5113072;27;20020;-63
2022/06/26 00:20:36;;;;;;;4.65;2.15;;;21.70;73.10;;;;;;5091399;28;20039;-65
2022/06/26 00:23:02;;;;;;;1.92;1.70;;;21.70;73.20;;;;;;5086557;28;20046;-65
2022/06/26 00:25:28;;;;;;;3.20;2.60;;;21.70;73.20;;;;;;5087214;28;20231;-64
2022/06/26 00:27:54;;;;;;;2.47;2.10;;;21.70;73.30;;;;;;5088571;28;20500;-66
2022/06/26 00:30:20;;;;;;;2.35;2.15;;;21.70;73.40;;;;;;5086099;28;20052;-64
2022/06/26 00:32:46;;;;;;;18.17;2.60;;;21.70;73.40;;;;;;5091259;28;20044;-65
2022/06/26 00:35:12;;;;;;;2.78;2.40;;;21.70;73.40;;;;;;5086898;28;20032;-65
2022/06/26 00:37:37;;;;;;;4.30;2.35;;;21.70;73.50;;;;;;5087033;28;20170;-65
2022/06/26 00:40:04;;;;;;;2.72;2.00;;;21.70;73.60;;;;;;5089122;28;20147;-67
2022/06/26 00:42:29;;;;;;;2.88;2.05;;;21.70;73.60;;;;;;5089190;28;20020;-65
2022/06/26 00:44:56;;;;;;;6.80;2.22;;;21.60;73.90;;;;;;5082155;28;20356;-66
2022/06/26 00:47:25;;;;;;;3.10;2.03;;;21.60;74.20;;;;;;5086503;28;20036;-64
2022/06/26 00:49:51;;;;;;;3.83;3.13;;;21.50;74.30;;;;;;5085446;28;20051;-64
2022/06/26 00:52:19;;;;;;;4.03;2.63;;;21.50;74.30;;;;;;5085273;28;20483;-65
2022/06/26 00:54:44;;;;;;;2.75;2.38;;;21.60;74.50;;;;;;5083247;28;20034;-66
2022/06/26 00:57:12;;;;;;;3.22;2.67;;;21.50;74.60;;;;;;5086877;28;20028;-66
2022/06/26 00:59:38;;;;;;;2.53;2.33;;;21.50;74.70;;;;;;5085128;28;20111;-66
2022/06/26 01:02:05;;;;;;;3.42;2.60;;;21.60;74.90;;;;;;5083102;28;20031;-66
2022/06/26 01:04:31;;;;;;;3.80;2.88;;;21.50;75.00;;;;;;5085473;28;20047;-63
2022/06/26 01:06:56;;;;;;;4.40;2.60;;;21.50;75.30;;;;;;5083737;28;20036;-66
2022/06/26 01:09:22;;;;;;;3.30;2.65;;;21.50;75.60;;;;;;5085064;28;20047;-66
2022/06/26 01:11:48;;;;;;;3.25;2.70;;;21.50;75.60;;;;;;5088327;28;20048;-66
2022/06/26 01:14:14;;;;;;;2.55;2.08;;;21.50;75.50;;;;;;5085199;28;20155;-63
2022/06/26 01:16:40;;;;;;;2.83;2.53;;;21.50;75.50;;;;;;5084187;28;20048;-64
2022/06/26 01:19:07;;;;;;;4.20;2.97;;;21.50;75.50;;;;;;5087006;28;20024;-63
2022/06/26 01:21:33;;;;;;;2.50;2.28;;;21.60;75.70;;;;;;5087883;28;20028;-64
2022/06/26 01:23:59;;;;;;;3.75;2.88;;;21.50;75.50;;;;;;5084290;28;20463;-63
2022/06/26 01:26:26;;;;;;;2.65;2.17;;;21.50;75.50;;;;;;5082394;28;20457;-64
2022/06/26 01:28:52;;;;;;;3.60;3.03;;;21.50;75.60;;;;;;5085351;28;20154;-63
2022/06/26 01:31:19;;;;;;;2.88;2.35;;;21.50;75.70;;;;;;5086548;28;20360;-63
2022/06/26 01:33:48;;;;;;;3.35;2.40;;;21.50;75.70;;;;;;5082841;28;20046;-63
2022/06/26 01:36:14;;;;;;;2.83;2.60;;;21.50;75.70;;;;;;5087662;28;20056;-67
2022/06/26 01:38:41;;;;;;;4.15;2.33;;;21.50;75.80;;;;;;5084584;28;20098;-64
2022/06/26 01:41:07;;;;;;;2.80;2.42;;;21.50;75.90;;;;;;5085454;28;20081;-66
2022/06/26 01:43:35;;;;;;;2.28;2.10;;;21.50;76.00;;;;;;5087415;28;20080;-66
2022/06/26 01:46:02;;;;;;;2.72;2.53;;;21.50;76.10;;;;;;5086295;28;20035;-66
2022/06/26 01:48:29;;;;;;;1.77;1.60;;;21.50;76.20;;;;;;5087817;28;20521;-67
2022/06/26 01:50:56;;;;;;;1.98;1.77;;;21.50;76.20;;;;;;5082514;28;20796;-63
2022/06/26 01:53:22;;;;;;;2.50;2.08;;;21.50;76.20;;;;;;5084596;28;20036;-66
2022/06/26 01:55:48;;;;;;;2.08;1.80;;;21.40;76.20;;;;;;5085888;28;20073;-66
2022/06/26 01:58:14;;;;;;;1.75;1.65;;;21.30;76.30;;;;;;5085337;28;20036;-66
2022/06/26 02:00:42;;;;;;;1.83;1.63;;;21.30;76.30;;;;;;5086679;28;20036;-66
2022/06/26 02:03:08;;;;;;;3.67;2.20;;;21.20;76.50;;;;;;5088496;28;20080;-64
2022/06/26 02:05:34;;;;;;;2.72;2.05;;;21.20;76.60;;;;;;5081575;28;20032;-64
2022/06/26 02:08:00;;;;;;;2.30;2.10;;;21.20;76.70;;;;;;5088510;28;20039;-66
2022/06/26 02:15:58;;;;;;;2.60;2.40;;;21.10;76.50;;;;;;5086895;28;20088;-66
2022/06/26 02:18:24;;;;;;;2.33;1.90;;;21.10;76.60;;;;;;5078478;28;20098;-66
2022/06/26 02:20:50;;;;;;;1.90;1.75;;;21.10;76.50;;;;;;5082980;28;20518;-66
2022/06/26 02:23:16;;;;;;;2.10;1.77;;;21.10;76.40;;;;;;5084138;28;20040;-66
2022/06/26 02:25:42;;;;;;;2.50;1.88;;;21.00;76.40;;;;;;5081837;28;20418;-66
2022/06/26 02:28:08;;;;;;;2.33;1.88;;;21.00;76.40;;;;;;5086909;28;20050;-66
2022/06/26 02:30:34;;;;;;;2.78;1.90;;;21.00;76.50;;;;;;5090475;28;20039;-66
2022/06/26 02:33:00;;;;;;;4.15;1.98;;;20.90;76.70;;;;;;5084481;28;20066;-64
2022/06/26 02:35:27;;;;;;;2.78;2.20;;;20.90;76.80;;;;;;5081725;28;20063;-66
2022/06/26 02:37:56;;;;;;;2.03;1.83;;;20.90;76.80;;;;;;5082121;28;20388;-63
2022/06/26 02:40:24;;;;;;;1.75;1.65;;;20.90;76.70;;;;;;5079392;28;20369;-63
2022/06/26 02:42:50;;;;;;;2.58;2.10;;;20.90;76.70;;;;;;5085856;28;20439;-65
2022/06/26 02:45:16;;;;;;;2.60;2.25;;;20.80;76.90;;;;;;5083643;28;20036;-63
2022/06/26 02:47:42;;;;;;;2.67;2.08;;;20.80;77.00;;;;;;5084869;28;20343;-64
2022/06/26 02:50:09;;;;;;;1.98;1.83;;;20.70;77.00;;;;;;5084226;28;20032;-64
2022/06/26 02:52:35;;;;;;;3.65;2.50;;;20.70;77.00;;;;;;5085920;28;20036;-64
2022/06/26 02:55:01;;;;;;;2.85;2.42;;;20.70;77.00;;;;;;5083316;28;20085;-64
2022/06/26 02:57:27;;;;;;;3.88;2.38;;;20.70;76.90;;;;;;5083370;28;20032;-63
2022/06/26 02:59:53;;;;;;;2.92;2.47;;;20.60;77.00;;;;;;5084199;28;20033;-64
2022/06/26 03:02:18;;;;;;;2.75;2.10;;;20.60;77.00;;;;;;5085356;28;20915;-63
2022/06/26 03:04:45;;;;;;;2.42;2.22;;;20.70;77.10;;;;;;5084338;28;20012;-64
2022/06/26 03:07:10;;;;;;;2.20;2.00;;;20.60;77.00;;;;;;5085323;28;20459;-64
2022/06/26 03:09:36;;;;;;;2.42;1.98;;;20.60;77.10;;;;;;5083378;28;20040;-64
2022/06/26 03:12:02;;;;;;;2.00;1.80;;;20.40;77.30;;;;;;5082860;28;20059;-63
2022/06/26 03:14:28;;;;;;;1.88;1.42;;;20.40;77.50;;;;;;5085112;28;20109;-64
2022/06/26 03:16:53;;;;;;;2.80;2.30;;;20.30;77.70;;;;;;5085011;28;20032;-64
2022/06/26 03:19:19;;;;;;;1.90;1.80;;;20.30;77.70;;;;;;5083684;28;20043;-66
2022/06/26 03:21:45;;;;;;;3.90;2.67;;;20.30;77.80;;;;;;5082155;28;20103;-66
2022/06/26 03:24:10;;;;;;;3.22;2.92;;;20.30;77.70;;;;;;5085286;28;20029;-66
2022/06/26 03:26:38;;;;;;;3.03;2.15;;;20.40;77.70;;;;;;5085565;28;20390;-66
2022/06/26 03:29:06;;;;;;;3.15;2.63;;;20.30;77.70;;;;;;5083342;28;20537;-66
2022/06/26 03:31:32;;;;;;;4.47;2.75;;;20.30;77.80;;;;;;5091315;28;20419;-66
2022/06/26 03:33:57;;;;;;;3.03;2.75;;;20.30;78.00;;;;;;5086995;28;20021;-66
2022/06/26 03:36:24;;;;;;;4.47;2.85;;;20.30;78.00;;;;;;5073718;28;20128;-66
2022/06/26 03:38:50;;;;;;;3.28;2.72;;;20.30;78.00;;;;;;5061538;28;20047;-66
2022/06/26 03:41:16;;;;;;;3.38;2.92;;;20.30;78.00;;;;;;5086604;28;20082;-66
2022/06/26 03:43:42;;;;;;;4.57;3.22;;;20.30;78.10;;;;;;5078283;28;20025;-67
2022/06/26 03:46:08;;;;;;;3.88;2.70;;;20.30;78.00;;;;;;5078447;28;20108;-66
2022/06/26 03:48:34;;;;;;;4.47;3.50;;;20.30;77.80;;;;;;5081290;28;20564;-67
2022/06/26 03:51:00;;;;;;;3.80;3.45;;;20.40;77.80;;;;;;5096609;28;20039;-67
2022/06/26 03:53:26;;;;;;;3.72;3.42;;;20.40;77.50;;;;;;5079759;28;20068;-67
2022/06/26 03:55:52;;;;;;;2.60;2.40;;;20.40;77.40;;;;;;5080282;28;20063;-64
2022/06/26 03:58:18;;;;;;;4.00;2.95;;;20.50;77.40;;;;;;5089042;28;20048;-64
2022/06/26 04:00:44;;;;;;;4.35;2.63;;;20.50;77.60;;;;;;5086618;28;20067;-67
2022/06/26 04:03:09;;;;;;;4.22;3.50;;;20.50;77.60;;;;;;5095921;28;20059;-67
2022/06/26 04:05:39;;;;;;;5.22;3.10;;;20.40;77.60;;;;;;5080945;28;20456;-67
2022/06/26 04:08:05;;;;;;;5.13;2.92;;;20.40;77.70;;;;;;5080701;28;20153;-66
2022/06/26 04:10:32;;;;;;;7.43;3.47;;;20.40;77.60;;;;;;5076674;28;20577;-64
2022/06/26 04:12:59;;;;;;;2.78;2.42;;;20.40;77.50;;;;;;5085426;28;20032;-63
2022/06/26 04:15:29;;;;;;;4.82;3.55;;;20.40;77.50;;;;;;5082038;28;20053;-64
2022/06/26 04:17:55;;;;;;;2.90;1.85;;;20.50;77.40;;;;;;5084824;28;20068;-64
2022/06/26 04:20:21;;;;;;;5.47;3.53;;;20.50;77.40;;;;;;5091024;28;20505;-67
2022/06/26 04:23:14;;;;;;;3.42;3.10;;;20.40;77.40;;;;;;5078880;28;20059;-67
2022/06/26 04:25:40;;;;;;;4.82;2.78;;;20.50;77.40;;;;;;5085527;28;20059;-66
2022/06/26 04:28:08;;;;;;;5.03;3.97;;;20.50;77.20;;;;;;5079106;28;20471;-66
2022/06/26 04:30:33;;;;;;;5.30;3.92;;;20.40;77.10;;;;;;5075672;28;20588;-67
2022/06/26 04:32:59;;;;;;;6.22;3.55;;;20.30;77.20;;;;;;5103374;28;20024;-67
2022/06/26 04:35:25;;;;;;;4.22;3.35;;;20.30;77.20;;;;;;5093022;28;20514;-66
2022/06/26 04:37:51;;;;;;;4.82;3.22;;;20.30;77.00;;;;;;5089742;28;20075;-66
2022/06/26 04:40:17;;;;;;;6.88;3.72;;;20.20;76.80;;;;;;5085149;28;20030;-66
2022/06/26 04:42:43;;;;;;;4.13;3.28;;;20.20;77.40;;;;;;5089204;28;20031;-67
2022/06/26 04:45:09;;;;;;;5.20;3.72;;;20.10;76.70;;;;;;5073166;28;20051;-66
2022/06/26 04:47:35;;;;;;;4.25;2.92;;;20.10;76.70;;;;;;5099000;28;20040;-65
2022/06/26 04:50:02;;;;;;;4.07;3.10;;;20.10;76.60;;;;;;5075858;28;20027;-66
2022/06/26 04:52:27;;;;;;;6.10;3.63;;;20.10;76.50;;;;;;5092164;28;20040;-66
2022/06/26 04:54:53;;;;;;;6.30;3.75;;;20.10;76.10;;;;;;5070840;28;20032;-66
2022/06/26 04:57:19;;;;;;;3.70;2.92;;;20.10;76.00;;;;;;5071975;28;20085;-67
2022/06/26 04:59:44;;;;;;;4.22;2.72;;;20.00;75.90;;;;;;5070545;28;20456;-65
2022/06/26 05:02:10;;;;;;;6.75;3.35;;;20.10;75.90;;;;;;5078320;28;20071;-64
2022/06/26 05:04:37;;;;;;;4.95;3.35;;;20.10;75.90;;;;;;5093082;28;20025;-67
2022/06/26 05:07:03;;;;;;;3.70;3.08;;;20.10;75.90;;;;;;5079110;28;20441;-67
2022/06/26 05:09:29;;;;;;;7.55;3.15;;;20.20;75.90;;;;;;5075847;28;20079;-67
2022/06/26 05:11:55;;;;;;;4.28;2.95;;;20.20;75.80;;;;;;5078399;28;20547;-67
2022/06/26 05:14:21;;;;;;;5.43;4.03;;;20.20;75.90;;;;;;5084504;28;20058;-67
2022/06/26 05:16:47;;;;;;;5.95;4.05;;;20.20;76.00;;;;;;5072027;28;20082;-67
2022/06/26 05:19:13;;;;;;;3.70;2.97;;;20.10;76.00;;;;;;5079984;28;20446;-67
2022/06/26 05:21:38;;;;;;;6.40;3.50;;;20.00;76.10;;;;;;5078526;28;20112;-67
2022/06/26 05:24:04;;;;;;;6.15;3.30;;;20.00;76.60;;;;;;5083359;28;20123;-67
2022/06/26 05:26:31;;;;;;;6.82;4.20;;;20.00;76.10;;;;;;5073949;28;20125;-66
2022/06/26 05:28:56;;;;;;;6.22;3.53;;;20.00;76.00;;;;;;5080112;28;20033;-67
2022/06/26 05:31:23;;;;;;;6.45;4.32;;;19.90;76.10;;;;;;5081660;28;20642;-66
2022/06/26 05:33:49;;;;;;;6.78;3.95;;;19.90;76.20;;;;;;5074139;28;20037;-68
2022/06/26 05:36:15;;;;;;;5.35;3.22;;;19.80;76.10;;;;;;5081225;28;20552;-67
2022/06/26 05:38:41;;;;;;;4.85;3.67;;;19.80;76.30;;;;;;5083478;28;20118;-67
2022/06/26 05:41:06;;;;;;;8.18;3.90;;;19.80;76.30;;;;;;5080605;28;20024;-67
2022/06/26 05:43:32;;;;;;;3.90;3.33;;;19.80;76.40;;;;;;5074342;28;20027;-66
2022/06/26 05:45:58;;;;;;;6.57;3.28;;;19.90;76.30;;;;;;5071271;28;20104;-67
2022/06/26 05:48:24;;;;;;;6.28;3.75;;;19.90;76.20;;;;;;5070758;28;20114;-65
2022/06/26 05:50:51;;;;;;;3.67;3.00;;;19.90;76.10;;;;;;5070376;28;20378;-67
2022/06/26 05:53:17;;;;;;;5.25;3.13;;;20.00;76.20;;;;;;5084034;28;20036;-66
2022/06/26 05:55:43;;;;;;;4.53;3.33;;;20.00;76.10;;;;;;5080019;28;20043;-67
2022/06/26 05:58:09;;;;;;;9.27;4.63;;;20.00;76.10;;;;;;5081710;28;20032;-67
2022/06/26 06:00:35;;;;;;;3.90;3.45;;;20.10;76.00;;;;;;5075737;28;20070;-66
2022/06/26 06:03:02;;;;;;;6.60;3.42;;;20.10;75.90;;;;;;5081953;28;20020;-67
2022/06/26 06:05:27;;;;;;;4.13;3.65;;;20.20;75.90;;;;;;5078711;28;20085;-67
2022/06/26 06:07:54;;;;;;;7.03;4.70;;;20.20;75.90;;;;;;5081330;28;20032;-66
2022/06/26 06:10:20;;;;;;;5.88;3.38;;;20.40;76.10;;;;;;5073301;28;20033;-66
2022/06/26 06:12:47;;;;;;;9.05;4.53;;;20.40;75.40;;;;;;5096123;28;20465;-67
2022/06/26 06:15:12;;;;;;;4.95;3.75;;;20.30;74.90;;;;;;5074815;28;20048;-64
2022/06/26 06:17:41;;;;;;;5.13;3.60;;;20.30;75.00;;;;;;5088572;28;20048;-64
2022/06/26 06:20:12;;;;;;;7.10;4.38;;;20.40;75.10;;;;;;5076364;28;20061;-65
2022/06/26 06:22:44;;;;;;;3.53;3.20;;;20.50;75.00;;;;;;5100711;28;20040;-67
2022/06/26 06:25:10;;;;;;;4.18;3.35;;;20.60;74.90;;;;;;5089809;28;20034;-67
2022/06/26 06:27:36;;;;;;;6.13;3.72;;;20.70;74.70;;;;;;5076423;28;20039;-67
2022/06/26 06:30:04;;;;;;;4.90;3.15;;;20.70;74.20;;;;;;5065949;28;20032;-64
2022/06/26 06:32:30;;;;;;;4.93;3.10;;;20.70;74.40;;;;;;5073947;28;20511;-67
2022/06/26 06:34:56;;;;;;;5.07;3.42;;;20.70;74.30;;;;;;5085291;28;20040;-67
2022/06/26 06:37:21;;;;;;;3.60;2.58;;;20.70;73.60;;;;;;5070059;28;20119;-67
2022/06/26 06:39:47;;;;;;;4.72;3.60;;;20.70;73.60;;;;;;5099039;28;20368;-65
2022/06/26 06:42:12;;;;;;;2.83;2.60;;;20.70;73.40;;;;;;5076953;28;20032;-66
2022/06/26 06:44:38;;;;;;;3.28;2.58;;;20.70;73.40;;;;;;5097354;28;20103;-67
2022/06/26 06:47:05;;;;;;;2.72;2.17;;;20.80;73.30;;;;;;5093198;28;20562;-65
2022/06/26 06:49:30;;;;;;;2.88;2.22;;;21.00;73.20;;;;;;5070474;28;20253;-65
2022/06/26 06:51:56;;;;;;;5.97;3.15;;;21.10;73.00;;;;;;5082390;28;20157;-67
2022/06/26 06:54:22;;;;;;;3.00;2.53;;;21.10;71.40;;;;;;5084909;28;20131;-65
2022/06/26 06:56:48;;;;;;;4.90;2.15;;;21.10;71.00;;;;;;5080565;28;20162;-65
2022/06/26 06:59:14;;;;;;;2.08;1.88;;;21.00;70.90;;;;;;5093159;28;20134;-65
2022/06/26 07:01:40;;;;;;;3.85;2.58;;;20.90;71.10;;;;;;5074576;28;20361;-65
2022/06/26 07:04:07;;;;;;;3.30;2.63;;;20.90;71.30;;;;;;5073423;28;20036;-65
2022/06/26 07:06:32;;;;;;;3.20;2.15;;;21.00;71.10;;;;;;5081537;28;20024;-65
2022/06/26 07:08:58;;;;;;;2.60;2.30;;;21.10;71.10;;;;;;5100020;28;20038;-65
2022/06/26 07:11:24;;;;;;;1.60;1.50;;;21.30;71.10;;;;;;5085254;28;20046;-66
2022/06/26 07:13:50;;;;;;;3.05;2.55;;;21.40;70.90;;;;;;5069823;28;20064;-66
2022/06/26 07:16:16;;;;;;;2.05;1.70;;;21.60;70.60;;;;;;5086414;28;20027;-67
2022/06/26 07:18:41;;;;;;;2.13;1.92;;;21.70;70.50;;;;;;5083494;28;20035;-65
2022/06/26 07:21:07;;;;;;;1.75;1.60;;;21.80;70.40;;;;;;5073323;28;20031;-67
2022/06/26 07:23:33;;;;;;;3.03;1.75;;;21.70;69.60;;;;;;5090750;28;20038;-67
2022/06/26 07:25:59;;;;;;;1.67;1.30;;;21.60;69.10;;;;;;5073296;28;20059;-67
2022/06/26 07:28:25;;;;;;;1.67;1.58;;;21.50;69.30;;;;;;5082614;28;20605;-66
2022/06/26 07:30:52;;;;;;;1.40;1.30;;;21.60;69.00;;;;;;5090731;28;20024;-65
2022/06/26 07:36:01;;;;;;;1.60;1.42;;;21.70;68.00;;;;;;5072914;28;20043;-67
2022/06/26 07:38:27;;;;;;;3.10;1.20;;;21.80;67.80;;;;;;5073331;28;20405;-66
2022/06/26 07:40:53;;;;;;;3.53;1.70;;;21.90;67.70;;;;;;5095934;28;20398;-66
2022/06/26 07:43:18;;;;;;;1.30;1.10;;;21.90;67.30;;;;;;5078292;28;20407;-66
2022/06/26 07:45:44;;;;;;;0.90;0.90;;;22.00;66.90;;;;;;5080237;28;20025;-68
2022/06/26 07:48:10;;;;;;;1.05;1.00;;;22.10;67.00;;;;;;5080974;28;20042;-68
2022/06/26 07:50:35;;;;;;;1.13;1.00;;;22.10;66.80;;;;;;5087259;28;20042;-68
2022/06/26 07:53:02;;;;;;;2.20;1.27;;;22.20;66.00;;;;;;5072504;28;20029;-68
2022/06/26 07:55:28;;;;;;;3.33;1.40;;;22.20;65.40;;;;;;5076420;28;20486;-68
2022/06/26 07:57:54;;;;;;;0.70;0.68;;;22.20;65.10;;;;;;5072155;28;20032;-68
2022/06/26 08:00:20;;;;;;;2.35;0.80;;;22.30;65.20;;;;;;5078540;28;20036;-68
2022/06/26 08:02:46;;;;;;;1.30;1.10;;;22.40;64.50;;;;;;5076459;28;20580;-68
2022/06/26 08:05:12;;;;;;;1.38;1.17;;;22.40;63.30;;;;;;5084929;28;21216;-68
2022/06/26 08:07:38;;;;;;;1.88;1.10;;;22.50;63.70;;;;;;5085623;28;20036;-68
2022/06/26 08:10:04;;;;;;;1.50;1.10;;;22.50;63.30;;;;;;5082170;28;20016;-68
2022/06/26 08:12:30;;;;;;;2.45;1.15;;;22.60;63.20;;;;;;5078853;28;20446;-67
2022/06/26 08:14:56;;;;;;;3.50;1.27;;;22.60;63.40;;;;;;5090096;28;20078;-68
2022/06/26 08:17:21;;;;;;;1.08;0.98;;;22.60;63.30;;;;;;5077836;28;20442;-68
2022/06/26 08:19:48;;;;;;;1.65;1.05;;;22.80;64.00;;;;;;5066602;28;20530;-64
2022/06/26 08:22:14;;;;;;;1.27;1.05;;;22.80;63.60;;;;;;5082728;28;20426;-64
2022/06/26 08:24:41;;;;;;;0.63;0.63;;;22.90;64.00;;;;;;5087052;28;20316;-64
2022/06/26 08:27:10;;;;;;;0.80;0.80;;;23.00;63.90;;;;;;5080340;28;20035;-65
2022/06/26 08:29:37;;;;;;;0.93;0.80;;;23.10;63.30;;;;;;5080342;28;20783;-63
2022/06/26 08:32:03;;;;;;;1.60;1.00;;;23.10;63.30;;;;;;5082745;28;20036;-64
2022/06/26 08:34:29;;;;;;;0.80;0.70;;;23.10;62.80;;;;;;5080871;28;20040;-67
2022/06/26 08:36:55;;;;;;;2.70;0.95;;;23.10;62.80;;;;;;5085501;28;20659;-66
2022/06/26 08:39:21;;;;;;;0.70;0.70;;;22.90;62.70;;;;;;5080323;28;20578;-68
2022/06/26 08:41:48;;;;;;;0.82;0.70;;;22.90;63.00;;;;;;5079592;28;20495;-67
2022/06/26 08:44:15;;;;;;;1.23;0.80;;;22.90;63.10;;;;;;5077192;28;20097;-68
2022/06/26 08:46:44;;;;;;;0.80;0.80;;;22.80;62.60;;;;;;5079753;28;20039;-68
2022/06/26 08:49:15;;;;;;;1.02;1.00;;;22.70;62.50;;;;;;5079979;28;20049;-64
2022/06/26 08:51:44;;;;;;;1.20;1.10;;;22.70;62.80;;;;;;5079189;28;20403;-63
2022/06/26 08:54:12;;;;;;;2.05;1.00;;;22.70;62.20;;;;;;5079404;28;20021;-63
2022/06/26 08:56:41;;;;;;;1.92;1.30;;;22.70;62.20;;;;;;5082441;28;20055;-64
2022/06/26 08:59:07;;;;;;;0.82;0.82;;;22.70;62.30;;;;;;5080079;28;20035;-64
2022/06/26 09:01:34;;;;;;;2.22;0.95;;;22.70;61.40;;;;;;5077248;28;20526;-63
2022/06/26 09:04:00;;;;;;;1.50;1.17;;;22.70;61.60;;;;;;5083755;28;20035;-64
2022/06/26 09:06:26;;;;;;;2.15;1.15;;;22.70;61.40;;;;;;5083504;28;20040;-67
2022/06/26 09:08:52;;;;;;;0.73;0.73;;;22.70;62.10;;;;;;5073910;28;20090;-63
2022/06/26 09:11:18;;;;;;;1.35;1.00;;;22.70;62.50;;;;;;5084498;28;20028;-63
2022/06/26 09:13:45;;;;;;;1.30;1.20;;;22.80;62.40;;;;;;5077318;28;20084;-65
2022/06/26 09:16:12;;;;;;;0.80;0.80;;;22.80;61.90;;;;;;5076796;28;20039;-64
2022/06/26 09:18:40;;;;;;;1.48;1.23;;;22.90;62.20;;;;;;5081660;28;20416;-64
2022/06/26 09:21:07;;;;;;;0.75;0.70;;;22.90;61.80;;;;;;5086528;28;20028;-64
2022/06/26 09:23:34;;;;;;;1.23;1.13;;;22.90;61.40;;;;;;5088781;28;20343;-67
2022/06/26 09:26:00;;;;;;;0.90;0.90;;;22.90;61.10;;;;;;5080824;28;20024;-63
2022/06/26 09:28:27;;;;;;;1.15;1.00;;;22.90;61.60;;;;;;5080154;28;20047;-64
2022/06/26 09:30:59;;;;;;;4.35;1.00;;;22.90;61.60;;;;;;5081511;28;20032;-64
2022/06/26 09:33:27;;;;;;;0.95;0.88;;;22.90;61.50;;;;;;5083562;28;20071;-67
2022/06/26 09:35:53;;;;;;;1.98;0.88;;;22.90;61.50;;;;;;5076545;28;20024;-67
2022/06/26 09:38:22;;;;;;;0.70;0.70;;;22.90;61.60;;;;;;5085331;28;20436;-68
2022/06/26 09:40:54;;;;;;;1.17;0.80;;;22.90;62.00;;;;;;5073957;28;20387;-66
2022/06/26 09:43:25;;;;;;;0.80;0.80;;;23.00;62.50;;;;;;5079996;28;20052;-68
2022/06/26 09:45:53;;;;;;;1.77;0.85;;;23.00;62.00;;;;;;5073720;28;20032;-67
2022/06/26 09:48:20;;;;;;;1.50;1.40;;;23.00;62.10;;;;;;5081731;28;20036;-67
2022/06/26 09:50:47;;;;;;;2.25;1.58;;;23.00;61.90;;;;;;5087766;28;20024;-67
2022/06/26 09:53:14;;;;;;;1.85;0.80;;;23.00;62.00;;;;;;5083001;28;20111;-67
2022/06/26 09:55:40;;;;;;;1.52;1.20;;;23.10;61.70;;;;;;5078951;28;20052;-64
2022/06/26 09:58:08;;;;;;;1.83;0.70;;;23.10;61.10;;;;;;5073555;28;20036;-63
2022/06/26 10:00:35;;;;;;;1.10;0.70;;;23.10;61.30;;;;;;5074175;28;20017;-63
2022/06/26 10:08:57;;;;;;;0.60;0.60;;;23.10;61.50;;;;;;5045207;28;20041;-67
2022/06/26 10:11:24;;;;;;;2.28;1.45;;;23.10;61.90;;;;;;5082693;28;20044;-68
2022/06/26 10:13:54;;;;;;;5.20;0.88;;;23.10;61.30;;;;;;5074652;28;20049;-63
2022/06/26 10:16:31;;;;;;;3.42;0.70;;;23.10;61.30;;;;;;5070113;28;20024;-63
2022/06/26 10:19:22;;;;;;;1.00;1.00;;;23.10;61.20;;;;;;5081731;28;20124;-64
2022/06/26 10:21:48;;;;;;;1.08;1.00;;;23.20;60.80;;;;;;5075503;28;20032;-63
2022/06/26 10:24:15;;;;;;;1.10;1.00;;;23.10;60.10;;;;;;5084878;28;20032;-64
2022/06/26 10:26:51;;;;;;;0.80;0.80;;;23.10;59.80;;;;;;5080424;28;20024;-64
2022/06/26 10:29:17;;;;;;;0.68;0.68;;;23.10;60.20;;;;;;5081777;28;20360;-63
2022/06/26 10:31:49;;;;;;;0.70;0.70;;;23.10;60.90;;;;;;5074493;28;20041;-63
2022/06/26 10:34:23;;;;;;;1.77;1.23;;;23.20;61.10;;;;;;5080278;28;20037;-67
2022/06/26 10:37:02;;;;;;;1.60;1.00;;;23.20;60.50;;;;;;5082572;28;20060;-67
2022/06/26 10:39:49;;;;;;;1.17;0.98;;;23.20;60.60;;;;;;5078205;28;20387;-66
2022/06/26 10:45:09;;;;;;;1.38;1.00;;;23.20;60.30;;;;;;5080865;28;20051;-68
2022/06/26 10:47:41;;;;;;;0.60;0.60;;;23.30;60.50;;;;;;5074445;28;20048;-67
2022/06/26 10:50:21;;;;;;;4.78;1.55;;;23.40;60.80;;;;;;5074229;28;20391;-64
2022/06/26 10:52:46;;;;;;;1.10;1.00;;;23.50;60.50;;;;;;5069803;28;20438;-65
2022/06/26 10:55:12;;;;;;;1.00;0.90;;;23.50;60.00;;;;;;5070418;28;20028;-63
2022/06/26 10:57:38;;;;;;;2.22;1.20;;;23.50;60.10;;;;;;5081345;28;20058;-64
2022/06/26 11:00:11;;;;;;;5.15;1.48;;;23.50;60.10;;;;;;5087772;28;20108;-64
2022/06/26 11:02:40;;;;;;;0.95;0.85;;;23.40;60.00;;;;;;5095721;28;20035;-64
2022/06/26 11:05:08;;;;;;;1.15;0.85;;;23.50;60.30;;;;;;5086470;28;20024;-67
2022/06/26 11:08:00;;;;;;;0.82;0.82;;;23.60;60.30;;;;;;5080597;28;20117;-63
2022/06/26 11:10:27;;;;;;;3.85;1.35;;;23.70;60.40;;;;;;5094252;28;20044;-63
2022/06/26 11:12:53;;;;;;;4.97;1.40;;;23.70;59.70;;;;;;5079632;28;20055;-64
2022/06/26 11:15:33;;;;;;;3.80;1.42;;;23.60;60.00;;;;;;5076694;28;20499;-63
2022/06/26 11:18:04;;;;;;;1.98;1.42;;;23.60;60.10;;;;;;5088611;28;20023;-63
2022/06/26 11:20:47;;;;;;;1.27;1.17;;;23.70;60.30;;;;;;5073975;28;20035;-64
2022/06/26 11:23:19;;;;;;;;;;;23.60;60.30;;;;;;5072278;28;20048;-65
2022/06/26 11:25:49;;;;;;;0.88;0.82;;;23.60;60.70;;;;;;5076190;28;20355;-64
2022/06/26 11:28:16;;;;;;;1.25;0.90;;;23.50;59.90;;;;;;5076556;28;20490;-64
2022/06/26 11:30:44;;;;;;;0.85;0.85;;;23.40;60.20;;;;;;5076972;28;20036;-64
2022/06/26 11:33:11;;;;;;;1.05;0.90;;;23.40;59.90;;;;;;5073761;28;20048;-64
2022/06/26 11:35:37;;;;;;;0.70;0.70;;;23.30;59.60;;;;;;5069576;28;20130;-64
2022/06/26 11:38:19;;;;;;;0.88;0.88;;;23.30;59.60;;;;;;5082128;28;20047;-64
2022/06/26 11:40:46;;;;;;;1.50;1.10;;;23.30;59.70;;;;;;5106246;27;20032;-65
2022/06/26 11:43:13;;;;;;;1.42;0.95;;;23.30;60.20;;;;;;5076877;28;20530;-64
2022/06/26 11:45:40;;;;;;;1.58;1.45;;;23.30;60.40;;;;;;5080305;28;20047;-65
2022/06/26 11:48:08;;;;;;;1.60;1.33;;;23.30;61.30;;;;;;5072179;28;20020;-65
2022/06/26 11:50:36;;;;;;;1.15;1.00;;;23.30;61.00;;;;;;5073718;28;20039;-64
2022/06/26 11:53:04;;;;;;;1.13;1.00;;;23.30;61.00;;;;;;5074810;28;20063;-65
2022/06/26 11:55:33;;;;;;;1.08;0.93;;;23.30;60.40;;;;;;5073704;28;20772;-63
2022/06/26 11:58:03;;;;;;;1.08;0.98;;;23.20;60.10;;;;;;5074946;28;20028;-64
2022/06/26 12:00:29;;;;;;;1.90;1.00;;;23.10;60.60;;;;;;5079856;28;20031;-63
2022/06/26 12:02:55;;;;;;;2.42;0.77;;;23.10;61.40;;;;;;5086491;28;20032;-63
2022/06/26 12:05:27;;;;;;;1.00;1.00;;;23.10;62.40;;;;;;5077653;28;20043;-64
2022/06/26 12:07:54;;;;;;;1.25;1.00;;;23.10;62.60;;;;;;5081661;28;20032;-63
2022/06/26 12:10:31;;;;;;;2.53;0.80;;;23.10;62.70;;;;;;5085625;28;20039;-64
2022/06/26 12:12:58;;;;;;;1.52;1.42;;;23.10;63.00;;;;;;5074949;28;20035;-67
2022/06/26 12:15:25;;;;;;;1.40;1.20;;;23.10;63.90;;;;;;5074411;28;20070;-66
2022/06/26 12:18:02;;;;;;;1.70;1.15;;;23.10;63.70;;;;;;5069650;28;20526;-67
2022/06/26 12:20:35;;;;;;;0.82;0.80;;;23.00;63.40;;;;;;5072782;28;20050;-67
2022/06/26 12:23:01;;;;;;;0.95;0.95;;;23.00;63.20;;;;;;5086086;28;20032;-67
2022/06/26 12:25:29;;;;;;;1.15;1.00;;;23.00;63.50;;;;;;5079894;28;20062;-66
2022/06/26 12:27:55;;;;;;;1.55;1.00;;;23.00;63.60;;;;;;5076470;28;20032;-67
2022/06/26 12:30:25;;;;;;;1.45;0.73;;;22.90;63.50;;;;;;5083266;28;20051;-67
2022/06/26 12:32:50;;;;;;;1.23;1.02;;;22.90;64.10;;;;;;5076176;28;20039;-67
2022/06/26 12:35:16;;;;;;;5.50;1.23;;;23.00;64.30;;;;;;5079481;28;20642;-66
2022/06/26 12:37:42;;;;;;;1.65;1.00;;;23.00;65.00;;;;;;5072122;28;20028;-67
2022/06/26 12:40:08;;;;;;;1.10;0.98;;;23.10;65.00;;;;;;5084746;28;20040;-67
2022/06/26 12:42:34;;;;;;;0.68;0.68;;;23.00;64.90;;;;;;5074200;28;20032;-67
2022/06/26 12:45:00;;;;;;;1.70;0.98;;;22.90;64.70;;;;;;5085736;28;20016;-67
2022/06/26 12:47:26;;;;;;;1.13;0.93;;;22.80;63.90;;;;;;5081718;28;20043;-67
2022/06/26 12:49:51;;;;;;;1.15;0.85;;;22.70;63.60;;;;;;5074661;28;20091;-67
2022/06/26 12:52:17;;;;;;;0.98;0.60;;;22.70;63.80;;;;;;5082941;28;20113;-67
2022/06/26 12:54:43;;;;;;;0.80;0.75;;;22.60;63.40;;;;;;5081646;28;20036;-67
2022/06/26 12:57:09;;;;;;;4.20;0.98;;;22.60;63.50;;;;;;5091391;28;20028;-67
2022/06/26 12:59:35;;;;;;;0.88;0.88;;;22.50;63.50;;;;;;5083735;28;20024;-67
2022/06/26 13:02:01;;;;;;;1.52;1.05;;;22.40;63.70;;;;;;5075630;28;20471;-66
2022/06/26 13:04:26;;;;;;;0.98;0.88;;;22.40;64.00;;;;;;5089638;28;20107;-67